Time;durP1;ratioP1;P1;durP2;ratioP2;P2;SDS_P1;SDS_P2;PMS_P1;PMS_P2;Temp;Humidity;BMP_temperature;BMP_pressure;BME280_temperature;BME280_humidity;BME280_pressure;Samples;Min_cycle;Max_cycle;Signal;HPM_P1;HPM_P2
2021/05/24 00:01:13;;;;;;;4.23;2.93;;;10.90;68.90;;;;;;5073666;28;20191;-87
2021/05/24 00:03:40;;;;;;;3.53;3.20;;;10.90;69.20;;;;;;5091040;28;21043;-87
2021/05/24 00:06:06;;;;;;;3.58;3.28;;;10.80;69.10;;;;;;5077497;28;20191;-87
2021/05/24 00:08:32;;;;;;;4.13;2.95;;;10.70;69.10;;;;;;5070625;28;20222;-87
2021/05/24 00:10:59;;;;;;;4.28;3.30;;;10.60;68.90;;;;;;5072817;28;20912;-87
2021/05/24 00:13:27;;;;;;;4.32;3.70;;;10.50;69.10;;;;;;5069592;28;20231;-87
2021/05/24 00:15:56;;;;;;;3.00;2.80;;;10.50;69.30;;;;;;5073042;28;20814;-87
2021/05/24 00:18:23;;;;;;;3.42;3.13;;;10.50;69.50;;;;;;5069469;28;20281;-88
2021/05/24 00:20:52;;;;;;;3.22;2.92;;;10.40;70.10;;;;;;5081162;28;20203;-87
2021/05/24 00:23:18;;;;;;;3.58;3.15;;;10.40;69.70;;;;;;5084851;28;20272;-87
2021/05/24 00:25:47;;;;;;;5.40;3.25;;;10.40;69.70;;;;;;5076012;28;20187;-88
2021/05/24 00:28:14;;;;;;;3.85;3.55;;;10.40;69.80;;;;;;5085983;28;20286;-88
2021/05/24 00:30:45;;;;;;;4.00;3.13;;;10.50;70.20;;;;;;5072552;28;20713;-87
2021/05/24 00:33:12;;;;;;;3.03;2.80;;;10.50;70.20;;;;;;5083827;28;20723;-88
2021/05/24 00:35:38;;;;;;;4.15;3.75;;;10.50;70.40;;;;;;5081810;28;20712;-87
2021/05/24 00:38:06;;;;;;;3.63;3.33;;;10.50;69.80;;;;;;5077182;28;20198;-88
2021/05/24 00:40:34;;;;;;;5.82;2.80;;;10.50;69.70;;;;;;5092426;28;20195;-88
2021/05/24 00:43:01;;;;;;;3.58;3.28;;;10.40;70.80;;;;;;5092708;28;20221;-88
2021/05/24 00:45:28;;;;;;;5.47;3.42;;;10.40;70.70;;;;;;5088736;28;20195;-88
2021/05/24 00:47:55;;;;;;;3.17;2.88;;;10.40;71.50;;;;;;5104789;28;20247;-87
2021/05/24 00:50:22;;;;;;;3.25;2.95;;;10.40;70.90;;;;;;5081901;28;20195;-88
2021/05/24 00:52:48;;;;;;;3.78;3.13;;;10.30;70.60;;;;;;5078217;28;20198;-88
2021/05/24 00:55:15;;;;;;;6.10;3.55;;;10.50;70.70;;;;;;5084575;28;20231;-88
2021/05/24 00:57:43;;;;;;;3.92;3.50;;;10.50;70.30;;;;;;5077433;28;20195;-88
2021/05/24 01:00:14;;;;;;;4.00;3.00;;;10.30;71.10;;;;;;5080155;28;20286;-87
2021/05/24 01:02:41;;;;;;;4.07;3.65;;;10.40;72.20;;;;;;5073316;28;20223;-88
2021/05/24 01:05:10;;;;;;;3.65;3.03;;;10.40;71.10;;;;;;5076463;28;20291;-88
2021/05/24 01:07:38;;;;;;;3.40;3.10;;;10.30;70.70;;;;;;5073780;28;20557;-88
2021/05/24 01:10:06;;;;;;;3.92;3.17;;;10.40;71.20;;;;;;5078366;28;20196;-88
2021/05/24 01:12:35;;;;;;;3.90;2.72;;;10.10;72.70;;;;;;5079490;28;20922;-88
2021/05/24 01:15:05;;;;;;;3.35;3.05;;;10.10;73.00;;;;;;5083314;28;20250;-87
2021/05/24 01:17:35;;;;;;;3.35;3.05;;;10.20;74.20;;;;;;5084524;28;20198;-88
2021/05/24 01:20:06;;;;;;;4.85;3.45;;;10.00;73.50;;;;;;5081496;28;20199;-88
2021/05/24 01:22:41;;;;;;;5.10;3.88;;;10.10;73.80;;;;;;5073502;28;20206;-88
2021/05/24 01:25:16;;;;;;;4.55;3.55;;;9.80;76.80;;;;;;5091544;28;20206;-86
2021/05/24 01:27:44;;;;;;;4.32;4.03;;;9.60;78.90;;;;;;5085444;28;20230;-87
2021/05/24 01:30:13;;;;;;;3.83;3.53;;;9.30;80.20;;;;;;5093105;28;20290;-88
2021/05/24 01:32:42;;;;;;;3.97;3.60;;;9.20;81.40;;;;;;5079133;28;20588;-88
2021/05/24 01:35:19;;;;;;;4.05;3.65;;;8.90;82.20;;;;;;5079189;28;20265;-88
2021/05/24 01:38:09;;;;;;;4.20;3.90;;;8.90;83.60;;;;;;5091357;28;20199;-88
2021/05/24 01:40:38;;;;;;;5.03;4.03;;;9.10;83.40;;;;;;5075049;28;20286;-88
2021/05/24 01:43:06;;;;;;;6.82;4.28;;;9.00;82.80;;;;;;5080189;28;20586;-88
2021/05/24 01:45:35;;;;;;;3.97;3.55;;;8.90;82.70;;;;;;5074148;28;20340;-88
2021/05/24 01:48:03;;;;;;;4.13;3.72;;;9.00;84.10;;;;;;5091984;28;20198;-88
2021/05/24 01:50:32;;;;;;;6.55;4.60;;;9.10;83.50;;;;;;5075968;28;20308;-88
2021/05/24 01:52:59;;;;;;;5.18;4.47;;;9.10;84.10;;;;;;5086958;28;20195;-88
2021/05/24 01:55:29;;;;;;;3.72;3.42;;;9.30;82.80;;;;;;5086419;28;20323;-88
2021/05/24 01:57:58;;;;;;;7.88;4.30;;;9.40;81.00;;;;;;5092771;28;20195;-87
2021/05/24 02:00:26;;;;;;;6.25;3.63;;;9.40;82.30;;;;;;5086755;28;20194;-87
2021/05/24 02:02:55;;;;;;;6.13;4.43;;;9.30;82.30;;;;;;5091934;28;20219;-87
2021/05/24 02:05:24;;;;;;;8.95;4.20;;;9.40;81.30;;;;;;5087290;28;20194;-87
2021/05/24 02:07:52;;;;;;;4.20;3.50;;;9.10;82.10;;;;;;5090555;28;20187;-87
2021/05/24 02:10:23;;;;;;;5.28;4.20;;;9.30;82.40;;;;;;5082948;28;20287;-88
2021/05/24 02:12:53;;;;;;;4.53;3.88;;;9.50;80.90;;;;;;5079354;28;20190;-88
2021/05/24 02:15:25;;;;;;;3.85;3.45;;;9.50;79.90;;;;;;5100158;28;20273;-86
2021/05/24 02:17:53;;;;;;;4.47;4.07;;;9.50;79.90;;;;;;5074799;28;20195;-87
2021/05/24 02:20:24;;;;;;;4.40;4.00;;;9.50;80.20;;;;;;5089301;28;20697;-88
2021/05/24 02:22:55;;;;;;;4.45;3.65;;;9.50;81.00;;;;;;5082177;28;20190;-88
2021/05/24 02:25:22;;;;;;;5.93;3.85;;;9.40;79.50;;;;;;5089081;28;20198;-88
2021/05/24 02:27:49;;;;;;;3.85;3.50;;;9.50;79.70;;;;;;5092044;28;20263;-87
2021/05/24 02:30:19;;;;;;;4.07;3.58;;;9.50;79.50;;;;;;5085237;28;20211;-87
2021/05/24 02:32:46;;;;;;;4.20;3.90;;;9.30;81.20;;;;;;5073472;28;20219;-88
2021/05/24 02:35:16;;;;;;;4.50;4.10;;;9.20;83.10;;;;;;5085351;28;20215;-87
2021/05/24 02:37:43;;;;;;;5.40;3.83;;;9.30;82.90;;;;;;5084062;28;20293;-87
2021/05/24 02:40:12;;;;;;;4.55;3.60;;;9.40;81.50;;;;;;5090738;28;20220;-86
2021/05/24 02:42:40;;;;;;;4.82;3.90;;;9.60;80.30;;;;;;5083613;28;20191;-87
2021/05/24 02:45:08;;;;;;;5.45;3.50;;;9.60;81.70;;;;;;5080156;28;20699;-88
2021/05/24 02:47:36;;;;;;;3.78;3.42;;;9.60;81.10;;;;;;5091912;28;20187;-88
2021/05/24 02:50:04;;;;;;;3.97;3.30;;;9.60;80.00;;;;;;5082476;28;20554;-88
2021/05/24 02:52:30;;;;;;;4.68;3.83;;;9.70;79.60;;;;;;5073034;28;20292;-88
2021/05/24 02:54:57;;;;;;;10.38;4.05;;;9.60;81.20;;;;;;5079498;28;20252;-88
2021/05/24 02:57:23;;;;;;;6.00;4.40;;;9.30;81.60;;;;;;5091137;28;20198;-87
2021/05/24 02:59:50;;;;;;;4.97;4.15;;;9.40;81.90;;;;;;5084995;28;20245;-88
2021/05/24 03:02:23;;;;;;;5.38;4.15;;;9.60;80.80;;;;;;5071523;28;20188;-87
2021/05/24 03:04:51;;;;;;;4.35;3.97;;;9.60;81.20;;;;;;5075544;28;20194;-88
2021/05/24 03:07:18;;;;;;;6.03;4.05;;;9.50;82.10;;;;;;5090424;28;20227;-88
2021/05/24 03:09:45;;;;;;;5.25;3.75;;;9.50;82.60;;;;;;5084410;28;20199;-88
2021/05/24 03:12:13;;;;;;;4.60;4.30;;;9.40;82.60;;;;;;5069320;28;20754;-87
2021/05/24 03:14:40;;;;;;;4.13;3.72;;;9.50;82.40;;;;;;5087908;28;20644;-88
2021/05/24 03:17:06;;;;;;;4.60;3.72;;;9.50;82.90;;;;;;5074826;28;20566;-88
2021/05/24 03:19:33;;;;;;;4.32;3.50;;;9.60;81.90;;;;;;5070757;28;20207;-88
2021/05/24 03:22:00;;;;;;;4.00;3.70;;;9.60;81.30;;;;;;5084311;28;20198;-89
2021/05/24 03:24:26;;;;;;;4.82;4.43;;;9.40;82.60;;;;;;5077929;28;20195;-87
2021/05/24 03:26:53;;;;;;;5.95;4.05;;;9.40;83.60;;;;;;5088729;28;20637;-88
2021/05/24 03:29:19;;;;;;;4.88;4.47;;;9.30;84.20;;;;;;5083249;28;20191;-88
2021/05/24 03:31:46;;;;;;;4.25;3.92;;;9.00;84.20;;;;;;5075183;28;20191;-88
2021/05/24 03:34:12;;;;;;;5.63;5.10;;;8.90;85.50;;;;;;5071430;28;20249;-87
2021/05/24 03:36:39;;;;;;;4.50;4.00;;;9.00;84.80;;;;;;5082443;28;20191;-87
2021/05/24 03:39:07;;;;;;;4.40;4.00;;;9.20;83.10;;;;;;5071097;28;20366;-88
2021/05/24 03:41:33;;;;;;;5.07;3.40;;;9.40;83.20;;;;;;5074813;28;20252;-87
2021/05/24 03:44:00;;;;;;;2.90;2.70;;;9.40;83.30;;;;;;5102246;28;20213;-88
2021/05/24 03:46:28;;;;;;;3.58;3.30;;;8.90;82.60;;;;;;5074982;28;20198;-87
2021/05/24 03:48:54;;;;;;;3.90;3.47;;;8.90;84.10;;;;;;5074262;28;20202;-87
2021/05/24 03:51:21;;;;;;;4.25;3.95;;;9.00;84.80;;;;;;5089593;28;20199;-88
2021/05/24 03:53:47;;;;;;;4.10;3.70;;;9.20;83.20;;;;;;5082551;28;20226;-88
2021/05/24 03:56:15;;;;;;;4.55;3.70;;;9.40;82.70;;;;;;5090649;28;20261;-87
2021/05/24 03:58:41;;;;;;;4.05;3.53;;;9.40;83.10;;;;;;5091148;28;20569;-88
2021/05/24 04:01:07;;;;;;;3.80;3.50;;;9.10;84.00;;;;;;5082175;28;20195;-88
2021/05/24 04:03:35;;;;;;;4.05;2.97;;;9.00;83.90;;;;;;5082461;28;20218;-88
2021/05/24 04:06:05;;;;;;;3.72;3.42;;;9.20;83.40;;;;;;5082867;28;20206;-87
2021/05/24 04:08:40;;;;;;;3.17;2.97;;;9.30;82.40;;;;;;5088923;28;20190;-88
2021/05/24 04:11:06;;;;;;;3.50;3.20;;;9.40;82.30;;;;;;5074116;28;20195;-88
2021/05/24 04:13:38;;;;;;;3.53;3.22;;;9.50;83.50;;;;;;5083442;28;20217;-88
2021/05/24 04:16:10;;;;;;;5.13;2.90;;;9.60;82.40;;;;;;5083503;28;20592;-87
2021/05/24 04:18:36;;;;;;;3.45;3.15;;;9.60;80.50;;;;;;5094378;28;20640;-87
2021/05/24 04:21:04;;;;;;;3.03;2.72;;;9.30;83.10;;;;;;5092698;28;20191;-88
2021/05/24 04:23:36;;;;;;;3.60;3.30;;;9.30;83.70;;;;;;5084203;28;20281;-88
2021/05/24 04:26:02;;;;;;;3.47;2.95;;;9.60;83.00;;;;;;5083301;28;20207;-87
2021/05/24 04:28:29;;;;;;;6.65;3.60;;;9.50;83.40;;;;;;5083414;28;20235;-88
2021/05/24 04:30:56;;;;;;;3.55;3.30;;;9.50;83.30;;;;;;5075232;28;20225;-88
2021/05/24 04:33:23;;;;;;;3.78;3.47;;;9.50;83.40;;;;;;5075480;28;20558;-88
2021/05/24 04:35:49;;;;;;;3.08;2.88;;;9.40;83.50;;;;;;5082570;28;20214;-87
2021/05/24 04:38:16;;;;;;;4.20;3.90;;;9.30;83.40;;;;;;5094129;28;20598;-87
2021/05/24 04:40:50;;;;;;;2.80;2.60;;;9.30;84.80;;;;;;5075022;28;20222;-87
2021/05/24 04:43:17;;;;;;;3.33;3.08;;;9.50;84.10;;;;;;5084630;28;20198;-88
2021/05/24 04:45:46;;;;;;;2.92;2.72;;;9.60;83.90;;;;;;5082288;28;20354;-88
2021/05/24 04:48:17;;;;;;;5.05;3.25;;;9.90;82.80;;;;;;5093874;28;20194;-87
2021/05/24 04:50:51;;;;;;;3.35;3.05;;;9.90;81.90;;;;;;5079959;28;20191;-87
2021/05/24 04:53:23;;;;;;;3.10;2.90;;;9.90;82.20;;;;;;5073649;28;20208;-88
2021/05/24 04:55:50;;;;;;;2.95;2.65;;;9.90;81.40;;;;;;5085216;28;21058;-87
2021/05/24 04:58:16;;;;;;;3.75;3.45;;;10.00;79.40;;;;;;5073614;28;20599;-88
2021/05/24 05:00:43;;;;;;;3.20;2.90;;;10.10;79.80;;;;;;5087667;28;20236;-87
2021/05/24 05:03:09;;;;;;;5.15;3.60;;;10.20;80.00;;;;;;5093856;28;20202;-88
2021/05/24 05:05:37;;;;;;;3.35;3.05;;;10.10;81.10;;;;;;5086698;28;20252;-87
2021/05/24 05:08:04;;;;;;;5.75;3.63;;;10.20;80.80;;;;;;5093277;28;20255;-88
2021/05/24 05:10:31;;;;;;;3.33;2.90;;;10.30;81.30;;;;;;5089945;28;20211;-88
2021/05/24 05:12:58;;;;;;;3.15;2.95;;;10.20;81.50;;;;;;5091345;28;20203;-88
2021/05/24 05:15:24;;;;;;;2.97;2.67;;;10.00;82.30;;;;;;5071090;28;20234;-87
2021/05/24 05:17:51;;;;;;;3.58;3.28;;;10.00;83.40;;;;;;5093832;28;20648;-88
2021/05/24 05:20:17;;;;;;;3.67;3.30;;;10.30;82.90;;;;;;5088124;28;20203;-87
2021/05/24 05:22:45;;;;;;;3.95;2.80;;;10.50;82.10;;;;;;5087174;28;20195;-87
2021/05/24 05:25:12;;;;;;;2.55;2.35;;;10.50;81.90;;;;;;5073702;28;20212;-88
2021/05/24 05:27:38;;;;;;;3.45;2.30;;;10.50;82.10;;;;;;5076793;28;20210;-87
2021/05/24 05:30:06;;;;;;;3.17;2.87;;;10.60;81.00;;;;;;5091513;28;20226;-88
2021/05/24 05:32:33;;;;;;;2.72;2.53;;;10.70;80.30;;;;;;5092122;28;20656;-88
2021/05/24 05:35:02;;;;;;;2.80;2.60;;;10.80;79.60;;;;;;5090904;28;20219;-87
2021/05/24 05:37:28;;;;;;;2.88;2.67;;;10.90;79.80;;;;;;5093051;28;20703;-88
2021/05/24 05:39:57;;;;;;;3.50;2.93;;;10.90;81.30;;;;;;5073210;28;20203;-87
2021/05/24 05:42:24;;;;;;;2.42;2.22;;;11.00;81.20;;;;;;5072782;28;20629;-87
2021/05/24 05:44:50;;;;;;;2.95;2.50;;;11.10;81.00;;;;;;5073674;28;20203;-89
2021/05/24 05:47:17;;;;;;;2.75;2.55;;;11.10;81.00;;;;;;5073754;28;20213;-88
2021/05/24 05:49:48;;;;;;;2.38;2.17;;;11.20;80.30;;;;;;5072154;28;20664;-88
2021/05/24 05:52:17;;;;;;;2.95;2.40;;;11.30;80.20;;;;;;5073349;28;20562;-88
2021/05/24 05:54:44;;;;;;;4.73;4.30;;;11.40;80.00;;;;;;5083766;28;20314;-88
2021/05/24 05:57:12;;;;;;;4.00;3.70;;;11.40;80.60;;;;;;5075855;28;20617;-88
2021/05/24 05:59:40;;;;;;;3.20;2.97;;;11.40;80.80;;;;;;5083823;28;20724;-87
2021/05/24 06:02:09;;;;;;;2.80;2.60;;;11.50;80.90;;;;;;5077673;28;20625;-87
2021/05/24 06:04:35;;;;;;;3.17;2.37;;;11.60;80.20;;;;;;5077193;28;20604;-87
2021/05/24 06:07:02;;;;;;;2.60;2.20;;;11.60;77.40;;;;;;5076329;28;20609;-88
2021/05/24 06:09:29;;;;;;;2.70;2.50;;;11.60;76.00;;;;;;5090966;28;21231;-87
2021/05/24 06:11:56;;;;;;;2.93;2.73;;;11.70;75.00;;;;;;5084188;28;20732;-88
2021/05/24 06:14:24;;;;;;;1.90;1.80;;;11.70;74.90;;;;;;5085491;28;20624;-88
2021/05/24 06:16:50;;;;;;;2.20;2.10;;;11.80;75.10;;;;;;5072491;28;20664;-88
2021/05/24 06:19:17;;;;;;;1.97;1.80;;;11.80;74.40;;;;;;5072317;28;20702;-87
2021/05/24 06:21:43;;;;;;;2.53;2.07;;;11.90;74.00;;;;;;5079427;28;21169;-87
2021/05/24 06:24:10;;;;;;;2.20;2.00;;;12.00;73.00;;;;;;5080410;28;20967;-87
2021/05/24 06:26:38;;;;;;;2.73;1.77;;;12.10;73.20;;;;;;5075543;28;20638;-88
2021/05/24 06:29:05;;;;;;;2.23;2.03;;;12.20;72.30;;;;;;5081117;28;20616;-88
2021/05/24 06:31:32;;;;;;;2.00;1.80;;;12.30;72.40;;;;;;5084753;28;20621;-87
2021/05/24 06:33:59;;;;;;;2.30;2.10;;;12.30;72.30;;;;;;5083190;28;20616;-88
2021/05/24 06:36:25;;;;;;;2.33;2.00;;;12.40;72.50;;;;;;5077576;28;21249;-87
2021/05/24 06:38:53;;;;;;;2.53;2.30;;;12.50;71.90;;;;;;5087837;28;20650;-88
2021/05/24 06:41:19;;;;;;;5.90;2.23;;;12.60;71.00;;;;;;5099324;28;20678;-88
2021/05/24 06:43:46;;;;;;;2.07;1.90;;;12.70;70.80;;;;;;5083509;28;20658;-87
2021/05/24 06:46:12;;;;;;;2.00;1.90;;;12.80;71.30;;;;;;5079676;28;20621;-87
2021/05/24 06:48:39;;;;;;;2.30;2.20;;;12.90;70.20;;;;;;5072745;28;20617;-88
2021/05/24 06:51:06;;;;;;;2.30;2.10;;;13.00;69.40;;;;;;5083629;28;20675;-88
2021/05/24 06:53:32;;;;;;;6.43;2.37;;;13.00;68.90;;;;;;5089360;28;20965;-88
2021/05/24 06:55:59;;;;;;;2.43;2.20;;;13.10;68.70;;;;;;5082528;28;20659;-88
2021/05/24 06:58:25;;;;;;;3.60;2.07;;;13.20;68.50;;;;;;5085296;28;20678;-86
2021/05/24 07:00:52;;;;;;;2.50;2.30;;;13.30;68.20;;;;;;5073081;28;21120;-87
2021/05/24 07:03:18;;;;;;;3.77;2.40;;;13.40;67.80;;;;;;5070739;28;20614;-88
2021/05/24 07:05:46;;;;;;;3.90;2.93;;;13.50;67.30;;;;;;5085393;28;20628;-88
2021/05/24 07:08:12;;;;;;;3.43;2.50;;;13.50;67.00;;;;;;5074362;28;20824;-88
2021/05/24 07:10:39;;;;;;;3.63;2.38;;;13.70;66.40;;;;;;5075200;28;21091;-87
2021/05/24 07:13:05;;;;;;;2.90;2.13;;;13.80;66.40;;;;;;5090720;28;20245;-88
2021/05/24 07:15:32;;;;;;;2.73;2.20;;;13.80;66.90;;;;;;5076047;28;20664;-87
2021/05/24 07:17:58;;;;;;;4.43;2.50;;;14.00;66.90;;;;;;5085311;28;20692;-88
2021/05/24 07:20:25;;;;;;;2.43;2.13;;;13.80;68.00;;;;;;5072123;28;20633;-88
2021/05/24 07:22:52;;;;;;;4.00;2.50;;;14.00;66.90;;;;;;5084453;28;20675;-88
2021/05/24 07:25:19;;;;;;;3.50;3.00;;;14.10;66.10;;;;;;5072088;28;20629;-88
2021/05/24 07:27:45;;;;;;;3.30;3.10;;;14.30;66.90;;;;;;5071796;28;20982;-87
2021/05/24 07:30:13;;;;;;;2.30;2.10;;;14.40;65.50;;;;;;5070484;28;20619;-88
2021/05/24 07:32:40;;;;;;;3.47;2.27;;;14.40;65.20;;;;;;5074560;28;20622;-87
2021/05/24 07:35:08;;;;;;;4.80;2.30;;;14.50;64.80;;;;;;5070392;28;21145;-88
2021/05/24 07:37:34;;;;;;;4.20;2.23;;;14.50;64.80;;;;;;5079867;28;20643;-87
2021/05/24 07:40:03;;;;;;;2.37;1.90;;;14.60;64.80;;;;;;5085763;28;20622;-87
2021/05/24 07:42:30;;;;;;;2.47;2.27;;;14.70;64.60;;;;;;5073589;28;20687;-87
2021/05/24 07:44:58;;;;;;;2.90;1.90;;;14.70;64.50;;;;;;5074590;28;20665;-88
2021/05/24 07:47:27;;;;;;;1.90;1.80;;;14.70;64.50;;;;;;5087637;28;21220;-87
2021/05/24 07:49:53;;;;;;;2.67;2.40;;;14.60;64.90;;;;;;5076295;28;21196;-87
2021/05/24 07:52:20;;;;;;;3.00;2.70;;;14.70;65.50;;;;;;5069033;28;20614;-87
2021/05/24 07:54:46;;;;;;;2.20;2.10;;;14.90;64.80;;;;;;5068269;28;20635;-88
2021/05/24 07:57:14;;;;;;;2.23;2.13;;;15.00;63.90;;;;;;5068075;28;20619;-88
2021/05/24 07:59:41;;;;;;;2.00;1.90;;;15.10;64.00;;;;;;5067876;28;20680;-88
2021/05/24 08:02:08;;;;;;;2.33;2.23;;;15.20;63.50;;;;;;5068108;28;20766;-87
2021/05/24 08:04:35;;;;;;;2.93;2.10;;;15.20;63.40;;;;;;5069261;28;20622;-87
2021/05/24 08:07:02;;;;;;;4.03;2.13;;;15.30;64.10;;;;;;5085747;28;20638;-86
2021/05/24 08:09:28;;;;;;;1.93;1.80;;;15.40;63.80;;;;;;5074640;28;20604;-88
2021/05/24 08:11:56;;;;;;;2.20;2.00;;;15.40;63.50;;;;;;5069918;28;20620;-88
2021/05/24 08:14:24;;;;;;;2.10;2.00;;;15.40;64.30;;;;;;5070156;28;21037;-87
2021/05/24 08:16:50;;;;;;;2.13;1.93;;;15.60;63.90;;;;;;5070338;28;20974;-88
2021/05/24 08:19:17;;;;;;;4.10;2.10;;;15.70;62.90;;;;;;5070206;28;20636;-87
2021/05/24 08:21:45;;;;;;;2.00;1.90;;;15.80;61.50;;;;;;5069760;28;20609;-87
2021/05/24 08:24:12;;;;;;;2.70;2.30;;;15.70;61.80;;;;;;5085862;28;20642;-89
2021/05/24 08:26:39;;;;;;;1.67;1.57;;;15.80;61.80;;;;;;5090008;28;21044;-88
2021/05/24 08:29:06;;;;;;;1.70;1.60;;;16.00;59.60;;;;;;5090412;28;20623;-87
2021/05/24 08:31:34;;;;;;;2.00;1.80;;;16.00;59.40;;;;;;5090223;28;20620;-87
2021/05/24 08:34:01;;;;;;;2.00;1.77;;;16.10;59.40;;;;;;5090221;28;20953;-88
2021/05/24 08:36:27;;;;;;;2.47;1.10;;;16.10;59.80;;;;;;5089512;28;20637;-87
2021/05/24 08:38:54;;;;;;;1.20;1.10;;;16.30;58.20;;;;;;5090184;28;20631;-87
2021/05/24 08:41:21;;;;;;;1.53;1.30;;;16.50;57.70;;;;;;5090184;28;20612;-88
2021/05/24 08:43:48;;;;;;;1.60;1.50;;;16.50;56.80;;;;;;5090197;28;20635;-87
2021/05/24 08:46:14;;;;;;;1.00;1.00;;;16.50;57.20;;;;;;5089513;28;20611;-88
2021/05/24 08:48:41;;;;;;;1.40;1.30;;;16.40;56.80;;;;;;5090018;28;20662;-88
2021/05/24 08:51:09;;;;;;;1.10;1.00;;;16.40;57.90;;;;;;5089624;28;20604;-86
2021/05/24 08:53:37;;;;;;;2.00;0.90;;;16.10;57.00;;;;;;5089997;28;21015;-88
2021/05/24 08:56:04;;;;;;;1.13;1.10;;;16.40;58.00;;;;;;5089817;28;20714;-88
2021/05/24 08:58:31;;;;;;;1.00;1.00;;;16.30;58.40;;;;;;5093319;28;20651;-88
2021/05/24 09:00:57;;;;;;;1.40;1.30;;;16.60;58.10;;;;;;5093369;28;20631;-88
2021/05/24 09:03:25;;;;;;;1.90;1.10;;;16.90;57.20;;;;;;5092415;28;20620;-88
2021/05/24 09:05:54;;;;;;;1.20;1.10;;;17.10;56.50;;;;;;5093032;28;21233;-88
2021/05/24 09:08:32;;;;;;;1.20;1.10;;;16.90;57.30;;;;;;5093692;28;20665;-88
2021/05/24 09:10:59;;;;;;;1.40;1.30;;;17.00;57.60;;;;;;5093833;28;20608;-88
2021/05/24 09:13:31;;;;;;;1.50;1.40;;;17.30;56.50;;;;;;5093102;28;20609;-88
2021/05/24 09:15:58;;;;;;;1.80;1.43;;;17.40;56.90;;;;;;5092283;28;21195;-88
2021/05/24 09:18:24;;;;;;;1.63;1.10;;;17.70;57.20;;;;;;5092917;28;21176;-88
2021/05/24 09:20:52;;;;;;;1.37;1.27;;;17.90;56.60;;;;;;5093046;28;20627;-88
2021/05/24 09:23:21;;;;;;;1.63;1.53;;;18.20;56.30;;;;;;5085129;28;20605;-88
2021/05/24 09:25:59;;;;;;;2.00;1.90;;;18.40;55.80;;;;;;5072307;28;20626;-88
2021/05/24 09:28:27;;;;;;;1.43;1.33;;;18.50;56.20;;;;;;5072062;28;20613;-89
2021/05/24 09:30:54;;;;;;;1.53;1.43;;;18.70;55.30;;;;;;5072945;28;20611;-88
2021/05/24 09:33:21;;;;;;;2.00;1.63;;;18.80;55.50;;;;;;5082004;28;20622;-88
2021/05/24 09:35:50;;;;;;;1.53;1.30;;;18.90;56.20;;;;;;5085526;28;20672;-88
2021/05/24 09:38:17;;;;;;;1.40;1.30;;;19.00;55.80;;;;;;5072820;28;20665;-88
2021/05/24 09:40:50;;;;;;;1.30;1.20;;;19.10;54.50;;;;;;5072890;28;20616;-88
2021/05/24 09:43:19;;;;;;;1.37;1.27;;;19.10;54.60;;;;;;5072474;28;21449;-87
2021/05/24 09:45:48;;;;;;;1.57;1.30;;;19.10;54.00;;;;;;5072400;28;20728;-87
2021/05/24 09:48:15;;;;;;;1.60;0.93;;;19.10;54.60;;;;;;5072543;28;20686;-88
2021/05/24 09:50:41;;;;;;;1.40;0.80;;;19.20;53.10;;;;;;5072436;28;20632;-87
2021/05/24 09:53:08;;;;;;;1.03;0.93;;;19.30;52.90;;;;;;5072428;28;20671;-88
2021/05/24 09:55:37;;;;;;;1.43;1.10;;;19.40;52.70;;;;;;5071150;28;21213;-89
2021/05/24 09:58:07;;;;;;;0.93;0.93;;;19.50;53.00;;;;;;5072042;28;21160;-88
2021/05/24 10:00:40;;;;;;;1.33;1.23;;;19.50;53.60;;;;;;5072461;28;20625;-88
2021/05/24 10:03:09;;;;;;;1.27;1.20;;;19.60;52.90;;;;;;5071413;28;20601;-88
2021/05/24 10:05:39;;;;;;;1.17;1.17;;;19.70;52.50;;;;;;5071563;28;20620;-88
2021/05/24 10:08:06;;;;;;;1.33;1.23;;;19.80;52.50;;;;;;5071877;28;20631;-88
2021/05/24 10:10:34;;;;;;;0.70;0.70;;;19.80;52.20;;;;;;5072080;28;20624;-86
2021/05/24 10:13:01;;;;;;;1.10;1.03;;;19.90;52.40;;;;;;5071503;28;20714;-87
2021/05/24 10:15:28;;;;;;;1.57;1.27;;;19.80;52.10;;;;;;5071102;28;20633;-87
2021/05/24 10:18:01;;;;;;;1.20;1.10;;;19.90;51.30;;;;;;5071908;28;20709;-89
2021/05/24 10:20:28;;;;;;;0.93;0.93;;;20.00;51.70;;;;;;5071233;28;20637;-89
2021/05/24 10:22:54;;;;;;;1.53;0.90;;;20.10;50.90;;;;;;5076248;28;20997;-88
2021/05/24 10:25:22;;;;;;;1.67;1.17;;;19.90;51.90;;;;;;5091487;28;20620;-88
2021/05/24 10:27:50;;;;;;;0.80;0.80;;;20.10;50.90;;;;;;5091718;28;20937;-88
2021/05/24 10:30:19;;;;;;;1.20;1.10;;;20.20;50.10;;;;;;5091557;28;20662;-89
2021/05/24 10:32:57;;;;;;;0.63;0.63;;;20.10;50.50;;;;;;5091611;28;20613;-88
2021/05/24 10:35:35;;;;;;;0.80;0.80;;;19.70;51.10;;;;;;5091074;28;20983;-88
2021/05/24 10:38:21;;;;;;;1.30;1.17;;;19.50;50.90;;;;;;5091555;28;21005;-89
2021/05/24 10:40:48;;;;;;;1.17;1.07;;;19.50;50.40;;;;;;5092033;28;21206;-88
2021/05/24 10:43:17;;;;;;;1.20;1.10;;;19.10;49.20;;;;;;5091455;28;20996;-88
2021/05/24 10:45:44;;;;;;;0.87;0.60;;;19.30;51.50;;;;;;5090410;28;20631;-88
2021/05/24 10:48:17;;;;;;;1.73;0.70;;;19.50;51.90;;;;;;5091330;28;20624;-88
2021/05/24 10:51:07;;;;;;;0.97;0.73;;;19.70;50.80;;;;;;5091188;28;21525;-88
2021/05/24 10:53:42;;;;;;;1.10;1.00;;;19.90;50.20;;;;;;5091129;28;20673;-88
2021/05/24 10:56:17;;;;;;;0.90;0.90;;;19.90;51.50;;;;;;5090446;28;20679;-88
2021/05/24 10:58:43;;;;;;;1.20;0.97;;;20.00;48.50;;;;;;5091703;28;21058;-88
2021/05/24 11:01:10;;;;;;;1.03;1.03;;;20.00;49.20;;;;;;5111202;28;20641;-87
2021/05/24 11:03:40;;;;;;;1.73;1.00;;;20.00;47.80;;;;;;5091585;28;20609;-88
2021/05/24 11:06:11;;;;;;;0.90;0.90;;;20.10;49.10;;;;;;5090978;28;20665;-88
2021/05/24 11:08:41;;;;;;;1.13;0.77;;;20.00;48.10;;;;;;5091168;28;20640;-88
2021/05/24 11:11:19;;;;;;;0.60;0.60;;;19.90;46.70;;;;;;5091664;28;20623;-88
2021/05/24 11:13:58;;;;;;;0.70;0.70;;;19.90;45.50;;;;;;5091039;28;20601;-84
2021/05/24 11:16:25;;;;;;;0.60;0.60;;;20.10;45.20;;;;;;5090469;28;20644;-87
2021/05/24 11:19:04;;;;;;;0.87;0.80;;;20.00;46.60;;;;;;5089622;28;20607;-88
2021/05/24 11:21:31;;;;;;;1.03;1.00;;;20.00;48.10;;;;;;5091090;28;20631;-88
2021/05/24 11:26:41;;;;;;;0.90;0.90;;;20.30;46.30;;;;;;5056233;28;20622;-87
2021/05/24 11:29:13;;;;;;;1.20;1.10;;;20.50;44.80;;;;;;5070447;28;20613;-88
2021/05/24 11:31:48;;;;;;;1.43;0.80;;;20.70;43.90;;;;;;5070733;28;20706;-87
2021/05/24 11:34:38;;;;;;;0.90;0.77;;;21.10;44.40;;;;;;5070375;28;20621;-88
2021/05/24 11:37:06;;;;;;;1.20;1.10;;;21.00;43.60;;;;;;5070458;28;20672;-88
2021/05/24 11:39:35;;;;;;;1.40;1.30;;;21.10;43.40;;;;;;5070394;28;20660;-88
2021/05/24 11:42:05;;;;;;;0.73;0.60;;;21.30;42.70;;;;;;5070073;28;21022;-88
2021/05/24 11:44:35;;;;;;;1.00;0.83;;;21.40;42.10;;;;;;5070005;28;20618;-87
2021/05/24 11:47:04;;;;;;;0.80;0.80;;;21.90;42.10;;;;;;5070615;28;20633;-87
2021/05/24 11:49:34;;;;;;;2.60;0.60;;;22.30;43.20;;;;;;5070180;28;20998;-88
2021/05/24 11:52:01;;;;;;;0.90;0.90;;;22.90;42.40;;;;;;5070262;28;20972;-88
2021/05/24 11:54:28;;;;;;;0.93;0.70;;;23.50;40.60;;;;;;5069303;28;20619;-88
2021/05/24 11:56:57;;;;;;;0.60;0.60;;;23.90;39.50;;;;;;5070257;28;20755;-88
2021/05/24 11:59:25;;;;;;;0.80;0.80;;;23.00;40.00;;;;;;5070215;28;21248;-87
2021/05/24 12:01:52;;;;;;;0.50;0.50;;;23.30;40.30;;;;;;5069177;28;20642;-88
2021/05/24 12:04:22;;;;;;;1.00;0.90;;;23.80;39.40;;;;;;5069771;28;20650;-86
2021/05/24 12:06:51;;;;;;;0.80;0.80;;;24.30;40.30;;;;;;5069464;28;20616;-88
2021/05/24 12:09:49;;;;;;;1.47;1.23;;;24.50;40.60;;;;;;5070049;28;21245;-88
2021/05/24 12:12:17;;;;;;;1.10;0.93;;;24.40;43.80;;;;;;5027510;28;20622;-88
2021/05/24 12:14:45;;;;;;;1.53;1.40;;;23.30;46.20;;;;;;5060395;28;20635;-87
2021/05/24 12:17:14;;;;;;;1.50;0.97;;;22.70;45.30;;;;;;5069407;28;21183;-89
2021/05/24 12:19:41;;;;;;;1.07;0.93;;;22.60;40.60;;;;;;5069899;28;20734;-87
2021/05/24 12:22:11;;;;;;;1.20;1.10;;;23.30;42.50;;;;;;5070072;28;20634;-88
2021/05/24 12:24:40;;;;;;;1.00;1.00;;;23.20;43.20;;;;;;5091844;28;20615;-87
2021/05/24 12:27:08;;;;;;;0.83;0.83;;;22.80;41.40;;;;;;5107294;28;20608;-88
2021/05/24 12:29:37;;;;;;;1.30;1.20;;;22.60;42.40;;;;;;5090461;28;20612;-87
2021/05/24 12:32:06;;;;;;;1.00;1.00;;;22.30;42.30;;;;;;5093628;28;20623;-88
2021/05/24 12:34:38;;;;;;;1.50;1.40;;;22.30;42.40;;;;;;5093834;28;20614;-88
2021/05/24 12:37:07;;;;;;;1.10;1.10;;;22.10;42.50;;;;;;5093730;28;20663;-89
2021/05/24 12:39:37;;;;;;;2.20;1.10;;;22.10;44.00;;;;;;5093907;28;20668;-88
2021/05/24 12:42:05;;;;;;;1.63;1.10;;;21.90;44.60;;;;;;5093703;28;20606;-87
2021/05/24 12:44:35;;;;;;;1.37;1.20;;;22.10;45.90;;;;;;5093097;28;20629;-88
2021/05/24 12:47:13;;;;;;;1.70;1.20;;;22.10;44.60;;;;;;5093515;28;20633;-88
2021/05/24 12:49:42;;;;;;;0.80;0.80;;;22.40;46.50;;;;;;5093885;28;20606;-87
2021/05/24 12:52:11;;;;;;;1.17;1.07;;;22.50;43.90;;;;;;5093721;28;21021;-88
2021/05/24 12:54:47;;;;;;;2.63;1.40;;;22.10;42.60;;;;;;5092958;28;20607;-88
2021/05/24 12:57:16;;;;;;;1.23;1.13;;;22.10;42.40;;;;;;5093773;28;20617;-89
2021/05/24 12:59:48;;;;;;;5.23;1.70;;;22.20;43.90;;;;;;5093683;28;20719;-88